Time;durP1;ratioP1;P1;durP2;ratioP2;P2;SDS_P1;SDS_P2;PMS_P1;PMS_P2;Temp;Humidity;BMP_temperature;BMP_pressure;BME280_temperature;BME280_humidity;BME280_pressure;Samples;Min_cycle;Max_cycle;Signal;HPM_P1;HPM_P2
2023/06/06 07:00:54;;;;;;;2.00;1.10;;;;;;;21.17;28.79;100106.25;80165;1303;3013287;-64
2023/06/06 07:03:45;;;;;;;1.90;0.80;;;;;;;21.15;29.06;100109.79;77925;1306;3053423;-63
2023/06/06 07:06:22;;;;;;;4.50;1.00;;;;;;;21.17;28.54;100101.02;77980;1302;3050198;-65
2023/06/06 07:08:53;;;;;;;2.70;1.30;;;;;;;21.20;29.18;100102.89;79153;1301;3012066;-62
2023/06/06 07:11:22;;;;;;;2.90;1.10;;;;;;;21.28;29.49;100103.39;77949;1303;3052527;-64
2023/06/06 07:13:52;;;;;;;4.00;1.50;;;;;;;21.29;29.61;100104.95;77226;1301;3014295;-64
2023/06/06 07:16:23;;;;;;;4.00;1.40;;;;;;;21.29;29.82;100106.82;78213;1304;3050256;-63
2023/06/06 07:18:52;;;;;;;5.30;1.80;;;;;;;21.43;29.44;100104.62;79412;1299;3013310;-62
2023/06/06 07:21:21;;;;;;;7.20;1.60;;;;;;;21.44;28.72;100105.77;78199;1303;3048585;-64
2023/06/06 07:23:52;;;;;;;5.80;1.30;;;;;;;21.42;28.31;100102.54;81888;1298;3011266;-64
2023/06/06 07:26:36;;;;;;;3.80;1.60;;;;;;;21.36;28.66;100105.85;80640;1298;3049172;-64
2023/06/06 07:29:15;;;;;;;4.40;1.90;;;;;;;21.39;28.99;100109.05;80578;1300;3051410;-64
2023/06/06 07:32:12;;;;;;;4.70;1.50;;;;;;;21.41;29.28;100117.12;80555;1298;3043907;-63
2023/06/06 07:34:45;;;;;;;6.10;2.50;;;;;;;21.42;29.28;100116.69;81849;1299;3011386;-63
2023/06/06 07:37:14;;;;;;;5.70;2.50;;;;;;;21.48;29.35;100118.38;80550;1298;3050278;-63
2023/06/06 07:39:43;;;;;;;8.70;2.20;;;;;;;21.60;29.62;100124.04;81819;1300;3012447;-66
2023/06/06 07:42:15;;;;;;;7.10;2.40;;;;;;;21.72;29.73;100119.67;80543;1300;3052504;-64
2023/06/06 07:44:43;;;;;;;5.40;2.10;;;;;;;21.80;29.83;100121.80;81791;1300;3011189;-65
2023/06/06 07:47:19;;;;;;;4.80;2.10;;;;;;;21.83;29.28;100120.05;81307;1300;3011384;-64
2023/06/06 07:49:53;;;;;;;9.40;2.30;;;;;;;21.91;29.46;100117.31;80557;1300;3052657;-63
2023/06/06 07:52:35;;;;;;;5.40;2.00;;;;;;;21.98;29.03;100113.39;81831;1299;3018307;-64
2023/06/06 07:55:12;;;;;;;6.10;1.90;;;;;;;21.79;28.83;100109.58;80558;1298;3056005;-64
2023/06/06 07:57:40;;;;;;;7.60;2.10;;;;;;;21.94;29.09;100108.63;81832;1299;3011309;-64
2023/06/06 08:00:12;;;;;;;7.50;1.90;;;;;;;22.11;29.46;100102.32;81828;1300;3011123;-64
2023/06/06 08:02:44;;;;;;;8.80;2.20;;;;;;;22.26;29.00;100102.80;80583;1299;3052005;-64
2023/06/06 08:05:11;;;;;;;3.60;1.70;;;;;;;22.38;28.22;100101.11;81807;1300;3011233;-64
2023/06/06 08:07:41;;;;;;;3.90;1.90;;;;;;;22.52;28.41;100102.56;80540;1301;3067822;-64
2023/06/06 08:10:10;;;;;;;7.20;1.60;;;;;;;22.62;27.51;100102.25;81851;1298;3012641;-64
2023/06/06 08:12:40;;;;;;;3.10;1.90;;;;;;;22.68;27.57;100096.52;81291;1298;3011394;-65
2023/06/06 08:15:09;;;;;;;3.10;1.40;;;;;;;22.71;27.71;100092.82;81807;1298;3012331;-64
2023/06/06 08:17:41;;;;;;;4.90;1.80;;;;;;;22.78;27.80;100094.42;80523;1299;3049227;-65
2023/06/06 08:20:09;;;;;;;3.80;1.60;;;;;;;22.76;27.13;100092.46;81831;1299;3011452;-64
2023/06/06 08:22:38;;;;;;;6.30;1.80;;;;;;;22.82;27.26;100094.71;80554;1300;3052740;-64
2023/06/06 08:25:16;;;;;;;5.20;2.30;;;;;;;22.84;27.18;100089.20;81846;1298;3013344;-64
2023/06/06 08:28:00;;;;;;;3.00;1.50;;;;;;;22.71;27.29;100084.63;80628;1298;3056402;-64
2023/06/06 08:30:27;;;;;;;5.60;2.60;;;;;;;22.90;27.66;100085.15;81940;1297;3012329;-64
2023/06/06 08:32:58;;;;;;;4.70;1.70;;;;;;;23.00;27.84;100079.25;81907;1298;3011244;-64
2023/06/06 08:35:29;;;;;;;7.90;2.00;;;;;;;23.08;27.41;100079.02;80644;1297;3053136;-64
2023/06/06 08:37:56;;;;;;;4.20;1.70;;;;;;;23.20;27.14;100081.60;81916;1301;3013232;-63
2023/06/06 08:40:23;;;;;;;5.20;1.70;;;;;;;23.30;27.17;100085.50;81950;1297;3011290;-64
2023/06/06 08:42:52;;;;;;;5.20;1.80;;;;;;;23.40;26.80;100076.28;80630;1297;3056151;-64
2023/06/06 08:45:20;;;;;;;3.80;1.90;;;;;;;23.36;26.65;100075.60;81913;1298;3012717;-64
2023/06/06 08:47:50;;;;;;;3.40;1.80;;;;;;;23.38;27.30;100072.88;81386;1297;3011250;-66
2023/06/06 08:50:17;;;;;;;3.90;1.80;;;;;;;23.48;27.12;100072.16;81864;1298;3012450;-64
2023/06/06 08:52:44;;;;;;;3.60;1.70;;;;;;;23.53;26.57;100069.16;81866;1299;3011253;-64
2023/06/06 08:55:13;;;;;;;5.70;2.20;;;;;;;23.66;26.71;100068.20;80575;1298;3067332;-64
2023/06/06 08:57:43;;;;;;;6.40;1.60;;;;;;;23.76;26.55;100069.79;81787;1299;3012357;-64
2023/06/06 09:00:20;;;;;;;7.30;1.80;;;;;;;23.86;26.14;100070.33;80546;1301;3049489;-64
2023/06/06 09:02:52;;;;;;;4.70;1.40;;;;;;;23.86;26.31;100067.63;80587;1300;3052600;-64
2023/06/06 09:05:25;;;;;;;2.70;1.30;;;;;;;23.93;26.45;100064.75;80628;1299;3049991;-64
2023/06/06 09:07:58;;;;;;;6.80;1.50;;;;;;;24.05;26.34;100058.16;81916;1301;3011375;-64
2023/06/06 09:10:27;;;;;;;;;;;;;;;24.10;26.16;100057.23;80595;1301;3067939;-64
2023/06/06 09:13:02;;;;;;;3.10;1.40;;;;;;;24.15;25.75;100058.47;81881;1302;3012597;-65
2023/06/06 09:15:38;;;;;;;4.10;1.50;;;;;;;24.19;25.80;100058.27;80647;1297;3056746;-64
2023/06/06 09:18:06;;;;;;;3.50;1.50;;;;;;;24.17;26.18;100055.05;81884;1298;3011249;-64
2023/06/06 09:20:38;;;;;;;9.10;1.80;;;;;;;24.23;26.09;100054.17;80665;1298;3055305;-65
2023/06/06 09:23:12;;;;;;;6.00;1.50;;;;;;;24.31;25.91;100050.98;81948;1300;3018502;-64
2023/06/06 09:25:44;;;;;;;4.70;1.30;;;;;;;24.28;25.49;100050.59;80642;1298;3053216;-64
2023/06/06 09:28:10;;;;;;;7.00;1.60;;;;;;;24.37;25.52;100051.39;81940;1297;3011225;-64
2023/06/06 09:30:38;;;;;;;3.80;1.50;;;;;;;24.40;25.39;100047.90;80772;1295;3026402;-64
2023/06/06 09:33:05;;;;;;;4.40;1.40;;;;;;;24.47;25.24;100042.10;82000;1295;3012769;-65
2023/06/06 09:35:50;;;;;;;3.00;1.40;;;;;;;24.60;25.42;100046.33;81950;1295;3011445;-64
2023/06/06 09:38:19;;;;;;;5.80;1.80;;;;;;;24.72;25.24;100040.45;80667;1297;3050221;-64
2023/06/06 09:40:47;;;;;;;1.80;1.40;;;;;;;24.76;25.64;100037.13;81940;1297;3013156;-65
2023/06/06 09:43:15;;;;;;;3.60;1.70;;;;;;;24.83;25.24;100036.40;81907;1297;3011321;-64
2023/06/06 09:45:55;;;;;;;2.90;1.60;;;;;;;24.86;25.25;100035.23;80662;1296;3050049;-64
2023/06/06 09:48:27;;;;;;;3.70;1.40;;;;;;;24.81;25.12;100036.58;80761;1295;3056003;-64
2023/06/06 09:50:54;;;;;;;5.10;1.60;;;;;;;24.83;25.66;100035.52;81895;1297;3011258;-64
2023/06/06 09:53:24;;;;;;;3.10;1.50;;;;;;;24.97;25.76;100034.10;80620;1297;3051493;-65
2023/06/06 09:55:51;;;;;;;6.20;2.00;;;;;;;24.96;25.66;100033.34;81897;1297;3013263;-64
2023/06/06 09:58:20;;;;;;;5.90;1.90;;;;;;;25.05;25.62;100035.83;81902;1298;3011519;-65
2023/06/06 10:00:48;;;;;;;2.50;1.40;;;;;;;25.07;25.62;100029.50;80624;1297;3070013;-65
2023/06/06 10:03:18;;;;;;;2.90;1.70;;;;;;;25.15;25.55;100027.25;81934;1297;3011363;-65
2023/06/06 10:05:50;;;;;;;5.20;2.00;;;;;;;25.15;25.70;100025.11;80625;1297;3048868;-65
2023/06/06 10:10:53;;;;;;;7.30;2.30;;;;;;;25.27;25.98;100026.59;80212;1302;3012810;-65
2023/06/06 10:13:22;;;;;;;4.20;2.00;;;;;;;25.29;25.64;100027.27;79050;1302;3011594;-65
2023/06/06 10:15:49;;;;;;;4.50;1.80;;;;;;;25.31;26.06;100025.90;79149;1301;3011725;-64
2023/06/06 10:18:18;;;;;;;8.40;2.30;;;;;;;25.35;25.95;100028.19;78180;1304;3052809;-65
2023/06/06 10:20:44;;;;;;;4.80;1.80;;;;;;;25.51;26.02;100026.56;79219;1304;3019618;-65
2023/06/06 10:23:11;;;;;;;5.00;2.10;;;;;;;25.65;25.31;100023.11;76940;1299;3187268;-66
2023/06/06 10:25:40;;;;;;;4.00;2.00;;;;;;;25.75;25.48;100025.61;78066;1298;3028582;-66
2023/06/06 10:28:27;;;;;;;4.20;2.10;;;;;;;25.80;25.76;100023.59;79358;1299;3013839;-65
2023/06/06 10:31:16;;;;;;;5.60;2.30;;;;;;;25.74;25.76;100024.64;78290;1301;3053632;-65
2023/06/06 10:33:47;;;;;;;5.30;1.70;;;;;;;25.79;25.41;100021.34;78174;1300;3053393;-65
2023/06/06 10:36:17;;;;;;;5.00;2.20;;;;;;;25.89;25.11;100020.27;79282;1297;3013572;-65
2023/06/06 10:39:23;;;;;;;4.70;2.40;;;;;;;25.87;24.91;100016.89;78026;1300;3050074;-66
2023/06/06 10:41:52;;;;;;;5.80;2.10;;;;;;;25.87;24.30;100014.48;78118;1300;3057597;-66
2023/06/06 10:44:21;;;;;;;6.40;2.00;;;;;;;25.90;25.08;100015.81;79360;1299;3012875;-65
2023/06/06 10:46:50;;;;;;;6.70;2.00;;;;;;;26.00;25.14;100019.30;78142;1299;3026289;-65
2023/06/06 10:49:19;;;;;;;5.80;2.20;;;;;;;25.95;24.24;100016.29;79494;1297;3013474;-65
2023/06/06 10:51:48;;;;;;;5.30;1.70;;;;;;;25.88;23.69;100015.91;78822;1298;3011931;-65
2023/06/06 10:54:27;;;;;;;5.30;2.00;;;;;;;26.16;24.04;100012.93;79472;1299;3019247;-65
2023/06/06 10:56:55;;;;;;;3.60;2.10;;;;;;;26.28;24.59;100014.26;78024;1301;3050810;-65
2023/06/06 10:59:28;;;;;;;5.20;2.30;;;;;;;26.18;24.84;100013.46;79418;1295;3013578;-66
2023/06/06 11:01:56;;;;;;;4.00;2.20;;;;;;;26.11;25.19;100013.55;78079;1298;3054217;-65
2023/06/06 11:04:29;;;;;;;4.30;2.40;;;;;;;26.18;24.99;100011.88;79286;1301;3018880;-65
2023/06/06 11:07:00;;;;;;;3.60;2.00;;;;;;;26.36;24.57;100012.26;78378;1300;3052913;-66
